createdAt,value
2023-10-04T00:00:22.213Z,99.90
2023-10-04T00:02:53.625Z,99.90
2023-10-04T00:05:23.620Z,99.90
2023-10-04T00:07:53.785Z,99.90
2023-10-04T00:10:25.204Z,99.90
2023-10-04T00:12:54.976Z,99.90
2023-10-04T00:15:26.626Z,99.90
2023-10-04T00:17:55.942Z,99.90
2023-10-04T00:20:32.502Z,99.90
2023-10-04T00:23:01.663Z,99.90
2023-10-04T00:25:31.583Z,99.90
2023-10-04T00:28:00.223Z,99.90
2023-10-04T00:30:30.723Z,99.90
2023-10-04T00:33:03.821Z,99.90
2023-10-04T00:35:32.585Z,99.90
2023-10-04T00:38:01.768Z,99.90
2023-10-04T00:40:33.101Z,99.90
2023-10-04T00:43:03.495Z,99.90
2023-10-04T00:45:33.725Z,99.90
2023-10-04T00:48:12.164Z,99.90
2023-10-04T00:50:42.291Z,99.90
2023-10-04T00:53:12.224Z,99.90
2023-10-04T00:55:44.912Z,99.90
2023-10-04T00:58:14.793Z,99.90
2023-10-04T01:00:44.766Z,99.90
2023-10-04T01:03:16.142Z,99.90
2023-10-04T01:05:48.563Z,99.90
2023-10-04T01:08:18.248Z,99.90
2023-10-04T01:10:48.530Z,99.90
2023-10-04T01:13:19.999Z,99.90
2023-10-04T01:15:50.427Z,99.90
2023-10-04T01:18:18.883Z,99.90
2023-10-04T01:20:47.721Z,99.90
2023-10-04T01:23:17.753Z,99.90
2023-10-04T01:25:47.988Z,99.90
2023-10-04T01:28:19.702Z,99.90
2023-10-04T01:30:50.966Z,99.90
2023-10-04T01:33:20.573Z,99.90
2023-10-04T01:35:51.146Z,99.90
2023-10-04T01:38:24.851Z,99.90
2023-10-04T01:40:53.788Z,99.90
2023-10-04T01:43:22.305Z,99.90
2023-10-04T01:45:52.366Z,99.90
2023-10-04T01:48:21.389Z,99.90
2023-10-04T01:50:52.652Z,99.90
2023-10-04T01:53:24.059Z,99.90
2023-10-04T01:55:52.907Z,99.90
2023-10-04T01:58:24.653Z,99.90
2023-10-04T02:00:53.754Z,99.90
2023-10-04T02:03:22.686Z,99.90
2023-10-04T02:05:58.111Z,99.90
2023-10-04T02:08:29.226Z,99.90
2023-10-04T02:11:00.175Z,99.90
2023-10-04T02:13:29.269Z,99.90
2023-10-04T02:16:00.165Z,99.90
2023-10-04T02:18:28.661Z,99.90
2023-10-04T02:20:57.082Z,99.90
2023-10-04T02:23:26.990Z,99.90
2023-10-04T02:25:55.375Z,99.90
2023-10-04T02:28:26.120Z,99.90
2023-10-04T02:30:57.026Z,99.90
2023-10-04T02:33:34.353Z,99.90
2023-10-04T02:36:05.642Z,99.90
2023-10-04T02:38:37.455Z,99.90
2023-10-04T02:41:07.945Z,99.90
2023-10-04T02:43:38.295Z,99.90
2023-10-04T02:46:07.456Z,99.90
2023-10-04T02:48:37.201Z,99.90
2023-10-04T02:51:06.905Z,99.90
2023-10-04T02:53:40.892Z,99.90
2023-10-04T02:56:10.729Z,99.90
2023-10-04T02:58:43.343Z,99.90
2023-10-04T03:01:20.312Z,99.90
2023-10-04T03:03:52.321Z,99.90
2023-10-04T03:06:24.508Z,99.90
2023-10-04T03:08:56.575Z,99.90
2023-10-04T03:11:28.590Z,99.90
2023-10-04T03:14:00.210Z,99.90
2023-10-04T03:16:29.175Z,99.90
2023-10-04T03:18:58.010Z,99.90
2023-10-04T03:21:31.941Z,99.90
2023-10-04T03:24:11.160Z,99.90
2023-10-04T03:26:40.898Z,99.90
2023-10-04T03:29:12.518Z,99.90
2023-10-04T03:31:42.043Z,99.90
2023-10-04T03:34:11.048Z,99.90
2023-10-04T03:36:40.701Z,99.90
2023-10-04T03:39:13.762Z,99.90
2023-10-04T03:41:48.000Z,99.90
2023-10-04T03:44:17.850Z,99.90
2023-10-04T03:46:47.681Z,99.90
2023-10-04T03:49:20.470Z,99.90
2023-10-04T03:51:51.312Z,99.90
2023-10-04T03:54:21.859Z,99.90
2023-10-04T03:56:50.968Z,99.90
2023-10-04T03:59:19.535Z,99.90
2023-10-04T04:01:48.650Z,99.90
2023-10-04T04:04:19.217Z,99.90
2023-10-04T04:06:50.843Z,99.90
2023-10-04T04:09:21.040Z,99.90
2023-10-04T04:11:53.553Z,99.90
2023-10-04T04:14:22.374Z,99.90
2023-10-04T04:16:52.582Z,99.90
2023-10-04T04:19:24.128Z,99.90
2023-10-04T04:21:53.712Z,99.90
2023-10-04T04:24:24.592Z,99.90
2023-10-04T04:26:59.282Z,99.90
2023-10-04T04:29:28.262Z,99.90
2023-10-04T04:31:58.228Z,99.90
2023-10-04T04:34:27.200Z,99.90
2023-10-04T04:36:57.737Z,99.90
2023-10-04T04:39:29.710Z,99.90
2023-10-04T04:42:01.455Z,99.90
2023-10-04T04:44:39.606Z,99.90
2023-10-04T04:47:08.408Z,99.90
2023-10-04T04:49:36.934Z,99.90
2023-10-04T04:52:07.095Z,99.90
2023-10-04T04:54:35.512Z,99.90
2023-10-04T04:57:08.506Z,99.90
2023-10-04T04:59:37.295Z,99.90
2023-10-04T05:02:06.641Z,99.90
2023-10-04T05:04:35.545Z,99.90
2023-10-04T05:07:07.523Z,99.90
2023-10-04T05:09:36.657Z,99.90
2023-10-04T05:12:08.221Z,99.90
2023-10-04T05:14:36.968Z,99.90
2023-10-04T05:17:05.389Z,99.90
2023-10-04T05:19:33.796Z,99.90
2023-10-04T05:22:02.354Z,99.90
2023-10-04T05:24:31.812Z,99.90
2023-10-04T05:27:00.264Z,99.90
2023-10-04T05:29:30.765Z,99.90
2023-10-04T05:31:59.974Z,99.90
2023-10-04T05:34:28.584Z,99.90
2023-10-04T05:36:57.081Z,99.90
2023-10-04T05:39:25.616Z,99.90
2023-10-04T05:41:54.062Z,99.90
2023-10-04T05:44:22.436Z,99.90
2023-10-04T05:46:52.399Z,99.90
2023-10-04T05:49:20.786Z,99.90
2023-10-04T05:51:49.431Z,99.90
2023-10-04T05:54:17.900Z,99.90
2023-10-04T05:56:47.327Z,99.90
2023-10-04T05:59:15.683Z,99.90
2023-10-04T06:01:44.064Z,99.90
2023-10-04T06:04:13.934Z,99.90
2023-10-04T06:06:45.923Z,99.90
2023-10-04T06:09:27.706Z,99.90
2023-10-04T06:11:57.017Z,99.90
2023-10-04T06:14:28.002Z,99.90
2023-10-04T06:16:57.291Z,99.90
2023-10-04T06:19:31.260Z,99.90
2023-10-04T06:22:00.380Z,99.90
2023-10-04T06:24:28.993Z,99.90
2023-10-04T06:26:57.670Z,99.90
2023-10-04T06:29:27.466Z,99.90
2023-10-04T06:31:55.983Z,99.90
2023-10-04T06:34:24.502Z,99.90
2023-10-04T06:36:54.346Z,99.90
2023-10-04T06:39:24.290Z,99.90
2023-10-04T06:41:54.204Z,99.90
2023-10-04T06:44:23.625Z,99.90
2023-10-04T06:46:53.551Z,99.90
2023-10-04T06:49:22.126Z,99.90
2023-10-04T06:51:50.826Z,99.90
2023-10-04T06:54:20.908Z,99.90
2023-10-04T06:56:50.448Z,99.90
2023-10-04T06:59:19.171Z,99.90
2023-10-04T07:01:47.860Z,99.90
2023-10-04T07:04:16.459Z,99.90
2023-10-04T07:06:45.186Z,99.90
2023-10-04T07:09:15.270Z,99.90
2023-10-04T07:11:45.083Z,99.90
2023-10-04T07:14:13.800Z,99.90
2023-10-04T07:16:43.170Z,99.90
2023-10-04T07:19:12.647Z,99.90
2023-10-04T07:21:41.128Z,99.90
2023-10-04T07:24:10.037Z,99.90
2023-10-04T07:26:38.629Z,99.90
2023-10-04T07:29:08.614Z,99.90
2023-10-04T07:31:38.043Z,99.90
2023-10-04T07:34:06.994Z,99.90
2023-10-04T07:36:37.322Z,99.90
2023-10-04T07:39:05.933Z,99.90
2023-10-04T07:41:34.274Z,99.90
2023-10-04T07:44:02.794Z,99.90
2023-10-04T07:46:33.084Z,99.90
2023-10-04T07:49:03.035Z,99.90
2023-10-04T07:51:31.567Z,99.90
2023-10-04T07:54:00.051Z,99.90
2023-10-04T07:56:29.348Z,99.90
2023-10-04T07:58:58.283Z,99.90
2023-10-04T08:01:26.679Z,99.90
2023-10-04T08:03:56.946Z,99.90
2023-10-04T08:06:26.176Z,99.90
2023-10-04T08:08:54.603Z,99.90
2023-10-04T08:11:23.170Z,99.90
2023-10-04T08:13:51.836Z,99.90
2023-10-04T08:16:20.330Z,99.90
2023-10-04T08:18:48.952Z,99.90
2023-10-04T08:21:18.791Z,99.90
2023-10-04T08:23:47.423Z,99.90
2023-10-04T08:26:16.733Z,99.90
2023-10-04T08:28:45.437Z,99.90
2023-10-04T08:31:14.837Z,99.90
2023-10-04T08:33:45.112Z,99.90
2023-10-04T08:36:18.987Z,99.90
2023-10-04T08:38:49.136Z,99.90
2023-10-04T08:41:18.672Z,99.90
2023-10-04T08:43:47.239Z,99.90
2023-10-04T08:46:19.709Z,99.90
2023-10-04T08:48:55.043Z,99.90
2023-10-04T08:51:35.920Z,99.90
2023-10-04T08:54:13.261Z,99.90
2023-10-04T08:56:50.267Z,99.90
2023-10-04T08:59:19.891Z,99.90
2023-10-04T09:01:49.708Z,99.90
2023-10-04T09:04:19.739Z,99.90
2023-10-04T09:06:50.022Z,99.90
2023-10-04T09:09:19.673Z,99.90
2023-10-04T09:11:48.075Z,99.90
2023-10-04T09:14:16.574Z,99.90
2023-10-04T09:16:45.100Z,99.90
2023-10-04T09:19:18.419Z,99.90
2023-10-04T09:21:52.792Z,99.90
2023-10-04T09:24:22.181Z,99.90
2023-10-04T09:26:54.025Z,99.90
2023-10-04T09:29:31.651Z,99.90
2023-10-04T09:32:00.694Z,99.90
2023-10-04T09:34:30.522Z,99.90
2023-10-04T09:37:00.613Z,99.90
2023-10-04T09:39:32.880Z,99.50
2023-10-04T09:42:05.098Z,99.30
2023-10-04T09:44:37.354Z,98.50
2023-10-04T09:47:06.905Z,98.80
2023-10-04T09:49:37.424Z,98.70
2023-10-04T09:52:08.842Z,98.30
2023-10-04T09:54:37.942Z,98.50
2023-10-04T09:57:09.386Z,98.10
2023-10-04T09:59:39.564Z,97.30
2023-10-04T10:02:11.565Z,97.70
2023-10-04T10:04:45.140Z,96.90
2023-10-04T10:07:18.301Z,97.30
2023-10-04T10:10:02.490Z,96.60
2023-10-04T10:12:34.361Z,96.90
2023-10-04T10:15:04.512Z,96.70
2023-10-04T10:17:35.543Z,96.50
2023-10-04T10:20:06.380Z,96.30
2023-10-04T10:22:36.403Z,96.60
2023-10-04T10:25:16.152Z,95.90
2023-10-04T10:27:45.929Z,96.30
2023-10-04T10:30:17.857Z,96.00
2023-10-04T10:32:55.665Z,95.70
2023-10-04T10:36:00.554Z,95.60
2023-10-04T10:38:49.357Z,95.90
2023-10-04T10:42:04.366Z,95.60
2023-10-04T10:44:35.154Z,95.50
2023-10-04T10:47:13.883Z,95.50
2023-10-04T10:49:50.977Z,96.00
2023-10-04T10:52:27.369Z,95.20
2023-10-04T10:54:58.486Z,95.60
2023-10-04T10:57:29.318Z,95.40
2023-10-04T10:59:58.573Z,95.10
2023-10-04T11:02:29.017Z,94.80
2023-10-04T11:04:57.481Z,94.10
2023-10-04T11:07:27.424Z,94.60
2023-10-04T11:09:59.361Z,94.40
2023-10-04T11:12:27.954Z,94.40
2023-10-04T11:14:57.237Z,93.80
2023-10-04T11:17:25.835Z,94.20
2023-10-04T11:19:56.099Z,94.10
2023-10-04T11:22:26.076Z,94.10
2023-10-04T11:24:55.354Z,93.40
2023-10-04T11:27:26.616Z,94.00
2023-10-04T11:29:56.788Z,93.60
2023-10-04T11:32:25.347Z,93.70
2023-10-04T11:34:53.900Z,93.50
2023-10-04T11:37:22.711Z,93.70
2023-10-04T11:39:51.144Z,94.20
2023-10-04T11:42:22.456Z,93.90
2023-10-04T11:44:52.228Z,93.60
2023-10-04T11:47:33.176Z,93.80
2023-10-04T11:50:11.692Z,93.80
2023-10-04T11:52:42.829Z,93.80
2023-10-04T11:55:26.460Z,93.90
2023-10-04T11:57:54.979Z,93.40
2023-10-04T12:00:27.590Z,93.50
2023-10-04T12:02:56.188Z,94.40
2023-10-04T12:05:24.695Z,95.20
2023-10-04T12:07:56.106Z,95.50
2023-10-04T12:10:24.739Z,96.40
2023-10-04T12:12:53.769Z,96.70
2023-10-04T12:15:22.910Z,96.60
2023-10-04T12:17:52.692Z,96.40
2023-10-04T12:20:22.087Z,96.00
2023-10-04T12:22:51.028Z,96.20
2023-10-04T12:25:20.028Z,96.00
2023-10-04T12:27:49.296Z,94.80
2023-10-04T12:30:19.563Z,94.60
2023-10-04T12:32:48.641Z,94.30
2023-10-04T12:35:18.591Z,94.10
2023-10-04T12:37:47.540Z,94.10
2023-10-04T12:40:24.609Z,93.80
2023-10-04T12:42:53.487Z,92.90
2023-10-04T12:45:22.361Z,92.90
2023-10-04T12:47:50.840Z,93.20
2023-10-04T12:50:22.833Z,93.30
2023-10-04T12:52:51.465Z,93.40
2023-10-04T12:55:20.248Z,93.60
2023-10-04T12:57:48.946Z,93.90
2023-10-04T13:00:20.115Z,94.10
2023-10-04T13:02:51.936Z,93.70
2023-10-04T13:05:22.601Z,93.10
2023-10-04T13:07:50.955Z,93.20
2023-10-04T13:10:19.482Z,92.80
2023-10-04T13:12:49.253Z,92.90
2023-10-04T13:15:18.241Z,93.10
2023-10-04T13:17:46.643Z,92.70
2023-10-04T13:20:19.254Z,92.40
2023-10-04T13:22:49.404Z,92.40
2023-10-04T13:25:18.582Z,92.30
2023-10-04T13:27:47.016Z,92.00
2023-10-04T13:30:16.477Z,91.60
2023-10-04T13:32:48.905Z,91.90
2023-10-04T13:35:17.746Z,91.40
2023-10-04T13:37:46.198Z,91.80
2023-10-04T13:40:21.852Z,91.20
2023-10-04T13:42:53.379Z,92.30
2023-10-04T13:45:23.782Z,92.80
2023-10-04T13:47:52.249Z,92.30
2023-10-04T13:50:24.994Z,92.50
2023-10-04T13:52:53.654Z,92.40
2023-10-04T13:55:27.308Z,92.00
2023-10-04T13:57:57.506Z,92.60
2023-10-04T14:00:26.459Z,92.50
2023-10-04T14:02:56.703Z,91.60
2023-10-04T14:05:26.826Z,91.80
2023-10-04T14:07:56.618Z,91.80
2023-10-04T14:10:26.797Z,92.30
2023-10-04T14:12:57.457Z,92.70
2023-10-04T14:15:27.146Z,91.60
2023-10-04T14:17:56.269Z,92.10
2023-10-04T14:20:25.214Z,92.30
2023-10-04T14:22:54.960Z,92.40
2023-10-04T14:25:23.599Z,92.30
2023-10-04T14:27:53.684Z,92.40
2023-10-04T14:30:25.106Z,92.30
2023-10-04T14:32:54.579Z,92.40
2023-10-04T14:35:24.847Z,92.30
2023-10-04T14:37:53.784Z,92.30
2023-10-04T14:40:23.809Z,92.40
2023-10-04T14:42:55.928Z,92.90
2023-10-04T14:45:24.743Z,93.00
2023-10-04T14:47:54.833Z,92.60
2023-10-04T14:50:23.513Z,92.20
2023-10-04T14:52:52.094Z,92.10
2023-10-04T14:55:21.670Z,91.90
2023-10-04T14:57:50.106Z,92.00
2023-10-04T15:00:21.786Z,91.90
2023-10-04T15:02:52.024Z,91.90
2023-10-04T15:05:21.575Z,92.20
2023-10-04T15:07:51.958Z,91.60
2023-10-04T15:10:22.959Z,91.80
2023-10-04T15:12:51.509Z,91.20
2023-10-04T15:15:21.734Z,90.70
2023-10-04T15:17:50.155Z,90.80
2023-10-04T15:20:21.348Z,90.00
2023-10-04T15:22:50.255Z,90.90
2023-10-04T15:25:19.172Z,91.50
2023-10-04T15:27:51.453Z,91.50
2023-10-04T15:30:23.700Z,91.60
2023-10-04T15:32:54.508Z,91.60
2023-10-04T15:35:26.479Z,91.80
2023-10-04T15:37:57.218Z,92.00
2023-10-04T15:40:29.783Z,92.60
2023-10-04T15:42:58.471Z,92.50
2023-10-04T15:45:29.593Z,92.40
2023-10-04T15:47:58.233Z,92.60
2023-10-04T15:50:26.661Z,92.40
2023-10-04T15:52:55.117Z,92.50
2023-10-04T15:55:23.745Z,92.60
2023-10-04T15:57:52.264Z,92.90
2023-10-04T16:00:34.151Z,92.90
2023-10-04T16:03:04.687Z,92.90
2023-10-04T16:05:33.853Z,93.00
2023-10-04T16:08:01.283Z,93.10
2023-10-04T16:10:29.779Z,93.10
2023-10-04T16:12:59.055Z,93.30
2023-10-04T16:15:28.273Z,93.50
2023-10-04T16:17:56.904Z,93.60
2023-10-04T16:20:26.813Z,93.80
2023-10-04T16:22:58.120Z,93.80
2023-10-04T16:25:27.608Z,93.70
2023-10-04T16:27:56.896Z,93.90
2023-10-04T16:30:25.944Z,93.80
2023-10-04T16:32:55.138Z,93.90
2023-10-04T16:35:23.945Z,94.10
2023-10-04T16:37:53.715Z,94.20
2023-10-04T16:40:23.103Z,94.40
2023-10-04T16:42:52.436Z,94.70
2023-10-04T16:45:22.162Z,94.80
2023-10-04T16:47:51.235Z,94.80
2023-10-04T16:50:21.568Z,94.70
2023-10-04T16:52:52.620Z,94.60
2023-10-04T16:55:22.943Z,94.60
2023-10-04T16:57:51.995Z,94.80
2023-10-04T17:00:20.797Z,95.00
2023-10-04T17:02:50.151Z,95.30
2023-10-04T17:05:19.310Z,95.40
2023-10-04T17:07:47.852Z,95.50
2023-10-04T17:10:16.666Z,95.70
2023-10-04T17:12:46.849Z,95.80
2023-10-04T17:15:15.589Z,96.10
2023-10-04T17:17:46.078Z,96.60
2023-10-04T17:20:15.284Z,97.00
2023-10-04T17:22:45.592Z,97.40
2023-10-04T17:25:14.950Z,97.40
2023-10-04T17:27:43.673Z,97.60
2023-10-04T17:30:18.782Z,97.80
2023-10-04T17:32:47.755Z,98.30
2023-10-04T17:35:18.625Z,98.70
2023-10-04T17:37:47.583Z,99.10
2023-10-04T17:40:16.562Z,99.00
2023-10-04T17:42:45.699Z,99.10
2023-10-04T17:45:15.984Z,99.20
2023-10-04T17:47:48.142Z,99.20
2023-10-04T17:50:16.727Z,99.30
2023-10-04T17:52:46.447Z,99.30
2023-10-04T17:55:16.061Z,99.70
2023-10-04T17:57:44.845Z,99.70
2023-10-04T18:00:15.918Z,99.70
2023-10-04T18:02:44.712Z,99.60
2023-10-04T18:05:13.134Z,99.70
2023-10-04T18:07:41.840Z,99.70
2023-10-04T18:10:14.013Z,99.80
2023-10-04T18:12:43.999Z,99.90
2023-10-04T18:15:18.122Z,99.90
2023-10-04T18:17:48.548Z,99.90
2023-10-04T18:20:17.084Z,99.90
2023-10-04T18:22:45.660Z,99.90
2023-10-04T18:25:14.114Z,99.90
2023-10-04T18:27:42.842Z,99.80
2023-10-04T18:30:12.275Z,99.60
2023-10-04T18:32:41.167Z,99.50
2023-10-04T18:35:12.442Z,99.50
2023-10-04T18:37:40.960Z,99.30
2023-10-04T18:40:10.869Z,99.20
2023-10-04T18:42:40.691Z,99.20
2023-10-04T18:45:11.576Z,99.50
2023-10-04T18:47:40.686Z,99.70
2023-10-04T18:50:12.707Z,99.30
2023-10-04T18:52:41.541Z,99.40
2023-10-04T18:55:11.643Z,99.60
2023-10-04T18:57:42.140Z,99.60
2023-10-04T19:00:14.462Z,99.60
2023-10-04T19:02:45.048Z,99.50
2023-10-04T19:05:16.815Z,99.50
2023-10-04T19:07:47.388Z,99.60
2023-10-04T19:10:17.728Z,99.60
2023-10-04T19:12:46.559Z,99.70
2023-10-04T19:15:16.053Z,99.80
2023-10-04T19:17:46.159Z,99.80
2023-10-04T19:20:16.921Z,99.80
2023-10-04T19:22:45.511Z,99.80
2023-10-04T19:25:16.476Z,99.90
2023-10-04T19:27:47.150Z,99.90
2023-10-04T19:30:16.041Z,99.90
2023-10-04T19:32:44.484Z,99.90
2023-10-04T19:35:17.054Z,99.90
2023-10-04T19:37:47.061Z,99.90
2023-10-04T19:40:17.673Z,99.90
2023-10-04T19:42:46.691Z,99.90
2023-10-04T19:45:20.135Z,99.90
2023-10-04T19:47:48.949Z,99.90
2023-10-04T19:50:17.938Z,99.90
2023-10-04T19:52:50.323Z,99.90
2023-10-04T19:55:19.650Z,99.90
2023-10-04T19:57:48.274Z,99.90
2023-10-04T20:00:20.473Z,99.90
2023-10-04T20:02:51.396Z,99.90
2023-10-04T20:05:20.339Z,99.90
2023-10-04T20:07:50.040Z,99.90
2023-10-04T20:10:18.579Z,99.90
2023-10-04T20:12:47.332Z,99.90
2023-10-04T20:15:15.888Z,99.90
2023-10-04T20:17:45.868Z,99.90
2023-10-04T20:20:17.720Z,99.90
2023-10-04T20:22:46.788Z,99.90
2023-10-04T20:25:18.596Z,99.90
2023-10-04T20:27:47.787Z,99.90
2023-10-04T20:30:18.599Z,99.90
2023-10-04T20:32:47.756Z,99.90
2023-10-04T20:35:18.366Z,99.90
2023-10-04T20:37:46.789Z,99.90
2023-10-04T20:40:16.933Z,99.90
2023-10-04T20:42:47.433Z,99.90
2023-10-04T20:45:16.665Z,99.90
2023-10-04T20:47:47.064Z,99.90
2023-10-04T20:50:16.756Z,99.90
2023-10-04T20:52:48.337Z,99.90
2023-10-04T20:55:18.535Z,99.90
2023-10-04T20:57:47.161Z,99.90
2023-10-04T21:00:16.684Z,99.90
2023-10-04T21:02:48.039Z,99.90
2023-10-04T21:05:21.159Z,99.90
2023-10-04T21:07:49.689Z,99.90
2023-10-04T21:10:19.651Z,99.90
2023-10-04T21:12:48.133Z,99.90
2023-10-04T21:15:18.276Z,99.90
2023-10-04T21:17:47.099Z,99.90
2023-10-04T21:20:19.461Z,99.90
2023-10-04T21:22:49.864Z,99.90
2023-10-04T21:25:19.996Z,99.90
2023-10-04T21:27:48.743Z,99.90
2023-10-04T21:30:17.834Z,99.90
2023-10-04T21:32:56.751Z,99.90
2023-10-04T21:35:31.913Z,99.90
2023-10-04T21:38:01.168Z,99.90
2023-10-04T21:40:31.191Z,99.90
2023-10-04T21:43:00.730Z,99.90
2023-10-04T21:45:32.035Z,99.90
2023-10-04T21:48:04.800Z,99.90
2023-10-04T21:50:36.794Z,99.90
2023-10-04T21:53:06.929Z,99.90
2023-10-04T21:55:36.854Z,99.90
2023-10-04T21:58:07.341Z,99.90
2023-10-04T22:00:44.837Z,99.90
2023-10-04T22:03:14.603Z,99.90
2023-10-04T22:05:44.618Z,99.90
2023-10-04T22:08:13.953Z,99.90
2023-10-04T22:10:45.134Z,99.90
2023-10-04T22:13:15.308Z,99.90
2023-10-04T22:15:44.198Z,99.90
2023-10-04T22:18:14.379Z,99.90
2023-10-04T22:20:45.155Z,99.90
2023-10-04T22:23:14.372Z,99.90
2023-10-04T22:25:45.963Z,99.90
2023-10-04T22:28:14.468Z,99.90
2023-10-04T22:30:42.895Z,99.90
2023-10-04T22:33:13.053Z,99.90
2023-10-04T22:35:41.645Z,99.90
2023-10-04T22:38:10.734Z,99.90
2023-10-04T22:40:39.195Z,99.90
2023-10-04T22:43:10.251Z,99.90
2023-10-04T22:45:39.503Z,99.90
2023-10-04T22:48:08.454Z,99.90
2023-10-04T22:50:36.934Z,99.90
2023-10-04T22:53:06.036Z,99.90
2023-10-04T22:55:36.386Z,99.90
2023-10-04T22:58:06.930Z,99.90
2023-10-04T23:00:39.298Z,99.90
2023-10-04T23:03:09.614Z,99.90
2023-10-04T23:05:38.163Z,99.90
2023-10-04T23:08:08.766Z,99.90
2023-10-04T23:10:38.315Z,99.90
2023-10-04T23:13:13.207Z,99.90
2023-10-04T23:15:46.918Z,99.90
2023-10-04T23:18:24.314Z,99.90
2023-10-04T23:21:04.799Z,99.90
2023-10-04T23:23:36.238Z,99.90
2023-10-04T23:26:04.876Z,99.90
2023-10-04T23:28:34.971Z,99.90
2023-10-04T23:31:05.742Z,99.90
2023-10-04T23:33:38.901Z,99.90
2023-10-04T23:36:08.475Z,99.90
2023-10-04T23:38:45.731Z,99.90
2023-10-04T23:41:37.151Z,99.90
2023-10-04T23:44:12.194Z,99.90
2023-10-04T23:46:42.175Z,99.90
2023-10-04T23:49:12.092Z,99.90
2023-10-04T23:51:42.928Z,99.90
2023-10-04T23:54:14.770Z,99.90
2023-10-04T23:56:58.054Z,99.90
2023-10-04T23:59:28.427Z,99.90
